Time;durP1;ratioP1;P1;durP2;ratioP2;P2;SDS_P1;SDS_P2;PMS_P1;PMS_P2;Temp;Humidity;BMP_temperature;BMP_pressure;BME280_temperature;BME280_humidity;BME280_pressure;Samples;Min_cycle;Max_cycle;Signal;HPM_P1;HPM_P2
2023/03/29 00:01:20;;;;;;;10.13;6.22;;;;;;;3.64;93.79;101675.88;4971716;28;20238;-48
2023/03/29 00:03:46;;;;;;;11.07;6.15;;;;;;;3.66;94.07;101679.41;4962608;28;20190;-46
2023/03/29 00:06:21;;;;;;;11.10;7.05;;;;;;;3.57;94.57;101679.38;4961035;28;20226;-46
2023/03/29 00:08:53;;;;;;;9.90;7.10;;;;;;;3.53;94.73;101667.00;4966368;28;20240;-46
2023/03/29 00:11:20;;;;;;;9.43;6.70;;;;;;;3.45;95.85;101666.06;4959739;28;20178;-45
2023/03/29 00:13:46;;;;;;;11.60;7.15;;;;;;;3.51;96.31;101668.75;4958996;28;20187;-50
2023/03/29 00:16:12;;;;;;;9.23;6.88;;;;;;;3.45;97.00;101669.59;4964423;28;20221;-44
2023/03/29 00:18:38;;;;;;;13.65;8.50;;;;;;;3.45;97.82;101655.47;4963300;28;20630;-45
2023/03/29 00:21:04;;;;;;;12.13;8.70;;;;;;;3.40;99.04;101659.88;4958761;28;20209;-45
2023/03/29 00:23:30;;;;;;;11.07;7.75;;;;;;;3.47;99.42;101659.00;4965630;28;20177;-45
2023/03/29 00:25:56;;;;;;;13.50;8.95;;;;;;;3.36;100.00;101658.09;4967137;28;20224;-46
2023/03/29 00:28:21;;;;;;;12.00;9.68;;;;;;;3.18;100.00;101651.81;4970572;28;20195;-46
2023/03/29 00:30:49;;;;;;;14.23;10.70;;;;;;;3.25;100.00;101660.69;4964031;28;20205;-48
2023/03/29 00:33:14;;;;;;;17.00;10.85;;;;;;;3.30;100.00;101643.03;4966484;28;20194;-46
2023/03/29 00:35:41;;;;;;;15.15;12.05;;;;;;;3.25;100.00;101643.03;4963912;28;20190;-49
2023/03/29 00:38:07;;;;;;;13.13;11.80;;;;;;;3.18;100.00;101659.75;4964393;28;20640;-46
2023/03/29 00:40:34;;;;;;;17.08;12.13;;;;;;;3.12;100.00;101642.97;4961423;28;20185;-46
2023/03/29 00:42:59;;;;;;;14.85;12.57;;;;;;;3.07;100.00;101645.59;4963303;28;20175;-51
2023/03/29 00:45:29;;;;;;;16.60;13.30;;;;;;;3.01;100.00;101635.81;4965600;28;20653;-46
2023/03/29 00:48:01;;;;;;;16.13;13.25;;;;;;;2.96;100.00;101632.28;4958316;28;20202;-44
2023/03/29 00:50:32;;;;;;;14.80;13.27;;;;;;;3.05;100.00;101634.97;4964104;28;20220;-46
2023/03/29 00:53:07;;;;;;;16.23;13.50;;;;;;;2.93;100.00;101631.38;4972792;28;20190;-47
2023/03/29 00:55:41;;;;;;;17.58;14.70;;;;;;;2.95;100.00;101638.47;4969913;28;20193;-45
2023/03/29 00:58:11;;;;;;;16.88;14.23;;;;;;;2.83;100.00;101615.44;4971535;28;20186;-47
2023/03/29 01:00:46;;;;;;;19.55;14.18;;;;;;;2.84;100.00;101616.31;4961801;28;20205;-45
2023/03/29 01:03:13;;;;;;;17.13;15.07;;;;;;;2.88;100.00;101618.97;4963913;28;20174;-49
2023/03/29 01:05:45;;;;;;;17.15;14.35;;;;;;;3.05;100.00;101605.84;4947950;28;20217;-48
2023/03/29 01:08:17;;;;;;;17.20;14.90;;;;;;;3.11;100.00;101615.59;4961953;28;20313;-47
2023/03/29 01:10:57;;;;;;;19.60;15.10;;;;;;;2.94;100.00;101604.91;4968330;28;20210;-48
2023/03/29 01:13:34;;;;;;;20.65;15.95;;;;;;;2.85;100.00;101599.56;4965543;28;20197;-46
2023/03/29 01:16:02;;;;;;;17.05;15.25;;;;;;;2.83;100.00;101609.25;4968879;28;20244;-46
2023/03/29 01:18:30;;;;;;;18.13;15.65;;;;;;;2.76;100.00;101607.47;4963217;28;20237;-47
2023/03/29 01:21:02;;;;;;;18.77;16.17;;;;;;;2.70;100.00;101608.28;4962393;28;20181;-46
2023/03/29 01:23:42;;;;;;;20.17;17.02;;;;;;;2.50;100.00;101600.22;4951495;28;20661;-47
2023/03/29 01:26:17;;;;;;;21.73;18.40;;;;;;;2.46;100.00;101599.31;4961279;28;20217;-45
2023/03/29 01:28:52;;;;;;;21.00;17.42;;;;;;;2.45;100.00;101592.25;4961906;28;20226;-49
2023/03/29 01:31:28;;;;;;;22.45;18.42;;;;;;;2.40;100.00;101583.38;4963456;28;20184;-48
2023/03/29 01:34:01;;;;;;;24.27;18.65;;;;;;;2.43;100.00;101583.44;4964417;28;20198;-44
2023/03/29 01:36:37;;;;;;;22.00;18.80;;;;;;;2.56;100.00;101572.91;4960375;28;20248;-45
2023/03/29 01:39:05;;;;;;;20.95;18.73;;;;;;;2.53;100.00;101572.91;4953909;28;20185;-45
2023/03/29 01:41:45;;;;;;;24.40;19.45;;;;;;;2.41;100.00;101574.59;4963667;28;20269;-44
2023/03/29 01:44:25;;;;;;;23.58;20.35;;;;;;;2.47;100.00;101569.34;5104185;27;20580;-45
2023/03/29 01:46:55;;;;;;;25.23;21.15;;;;;;;2.38;100.00;101563.09;5121920;28;20210;-47
2023/03/29 01:49:27;;;;;;;27.70;20.95;;;;;;;2.37;100.00;101562.22;5094509;28;20208;-45
2023/03/29 01:51:58;;;;;;;22.40;20.00;;;;;;;2.26;100.00;101562.13;5101257;28;20166;-46
2023/03/29 01:54:26;;;;;;;25.15;20.25;;;;;;;2.21;100.00;101558.59;5102932;28;20181;-48
2023/03/29 01:56:56;;;;;;;29.05;21.08;;;;;;;2.21;100.00;101560.34;5105454;28;20239;-45
2023/03/29 01:59:27;;;;;;;27.15;20.67;;;;;;;2.29;100.00;101547.16;5105582;28;20207;-45
2023/03/29 02:02:01;;;;;;;24.02;20.88;;;;;;;2.31;100.00;101541.00;5105664;28;20692;-45
2023/03/29 02:04:35;;;;;;;23.70;21.08;;;;;;;2.23;100.00;101542.72;5106278;28;20185;-48
2023/03/29 02:07:03;;;;;;;25.40;22.08;;;;;;;2.16;100.00;101538.25;5105449;28;20209;-48
2023/03/29 02:09:31;;;;;;;28.88;22.95;;;;;;;2.15;100.00;101531.22;5106065;28;20258;-45
2023/03/29 02:11:59;;;;;;;31.13;23.13;;;;;;;2.13;100.00;101519.75;5100409;28;20185;-46
2023/03/29 02:14:25;;;;;;;28.88;23.35;;;;;;;2.22;100.00;101515.41;5086357;28;20585;-48
2023/03/29 02:16:51;;;;;;;31.33;23.45;;;;;;;2.26;100.00;101503.09;5106365;28;20277;-48
2023/03/29 02:19:18;;;;;;;29.15;23.38;;;;;;;2.30;100.00;101507.53;5106761;28;20186;-50
2023/03/29 02:21:50;;;;;;;32.10;23.17;;;;;;;2.30;100.00;101504.00;5104721;28;20193;-48
2023/03/29 02:24:18;;;;;;;28.63;23.52;;;;;;;2.29;100.00;101492.53;5102951;28;20238;-48
2023/03/29 02:26:45;;;;;;;28.52;23.60;;;;;;;2.27;100.00;101494.28;5105872;28;20295;-47
2023/03/29 02:29:11;;;;;;;27.48;22.33;;;;;;;2.32;100.00;101484.63;5105791;28;20177;-45
2023/03/29 02:31:55;;;;;;;31.10;22.60;;;;;;;2.23;100.00;101488.09;5104558;28;20181;-47
2023/03/29 02:34:29;;;;;;;31.20;23.42;;;;;;;2.33;100.00;101489.03;5095625;28;20173;-47
2023/03/29 02:37:02;;;;;;;27.63;21.60;;;;;;;2.18;100.00;101481.88;5111393;28;20268;-47
2023/03/29 02:39:32;;;;;;;28.98;23.27;;;;;;;2.30;100.00;101481.09;5096200;28;20178;-47
2023/03/29 02:41:58;;;;;;;29.55;23.30;;;;;;;2.33;100.00;101469.66;5100205;28;20182;-46
2023/03/29 02:44:27;;;;;;;30.02;22.77;;;;;;;2.26;100.00;101482.81;5104172;28;20825;-46
2023/03/29 02:46:56;;;;;;;28.67;22.63;;;;;;;2.24;100.00;101462.53;5104144;28;20201;-46
2023/03/29 02:49:22;;;;;;;27.83;21.42;;;;;;;2.37;100.00;101472.31;5105410;28;20181;-46
2023/03/29 02:51:51;;;;;;;30.58;22.58;;;;;;;2.36;100.00;101467.91;5103968;28;20286;-47
2023/03/29 02:54:20;;;;;;;30.75;22.58;;;;;;;2.38;100.00;101460.84;5097982;28;20211;-46
2023/03/29 02:56:53;;;;;;;26.42;21.50;;;;;;;2.20;100.00;101458.97;5088729;28;20210;-48
2023/03/29 02:59:21;;;;;;;28.00;22.27;;;;;;;2.16;100.00;101454.53;5089474;28;20190;-44
2023/03/29 03:01:48;;;;;;;28.38;22.70;;;;;;;2.27;100.00;101449.31;5090957;28;20227;-48
2023/03/29 03:04:17;;;;;;;27.88;22.67;;;;;;;2.27;100.00;101441.38;5104054;28;20578;-47
2023/03/29 03:06:43;;;;;;;30.67;23.27;;;;;;;2.15;100.00;101438.69;5087924;28;20256;-47
2023/03/29 03:09:09;;;;;;;28.67;22.50;;;;;;;2.17;100.00;101436.94;5090142;28;20239;-49
2023/03/29 03:11:37;;;;;;;31.80;22.13;;;;;;;2.20;100.00;101431.66;5088413;28;20198;-49
2023/03/29 03:14:04;;;;;;;29.55;22.45;;;;;;;2.16;100.00;101422.81;5090023;28;20190;-46
2023/03/29 03:16:30;;;;;;;30.65;22.33;;;;;;;2.17;100.00;101410.50;5090113;28;20292;-48
2023/03/29 03:18:56;;;;;;;30.70;21.95;;;;;;;2.21;100.00;101417.59;5091659;28;20182;-48
2023/03/29 03:21:21;;;;;;;29.90;22.80;;;;;;;2.16;100.00;101414.91;5089447;28;20178;-47
2023/03/29 03:23:48;;;;;;;32.78;23.30;;;;;;;2.12;100.00;101412.22;5089189;28;20217;-46
2023/03/29 03:26:15;;;;;;;31.00;22.65;;;;;;;2.11;100.00;101406.06;5090276;28;20256;-48
2023/03/29 03:28:42;;;;;;;27.20;22.10;;;;;;;2.13;100.00;101411.38;5089228;28;20189;-49
2023/03/29 03:31:16;;;;;;;27.00;21.52;;;;;;;2.18;100.00;101412.28;5090367;28;20206;-49
2023/03/29 03:34:08;;;;;;;30.13;20.08;;;;;;;2.20;100.00;101413.16;5086039;28;20209;-48
2023/03/29 03:36:38;;;;;;;26.08;21.30;;;;;;;2.18;100.00;101410.50;5090799;28;20561;-48
2023/03/29 03:39:06;;;;;;;25.48;20.92;;;;;;;2.22;100.00;101412.28;5091240;28;20260;-51
2023/03/29 03:41:32;;;;;;;24.48;20.33;;;;;;;2.22;100.00;101414.06;5088633;28;20238;-47
2023/03/29 03:43:59;;;;;;;24.35;20.33;;;;;;;2.28;100.00;101403.53;5089090;28;21125;-47
2023/03/29 03:46:25;;;;;;;30.77;21.48;;;;;;;2.26;100.00;101405.28;5089321;28;20214;-48
2023/03/29 03:48:51;;;;;;;27.77;19.95;;;;;;;2.31;100.00;101395.59;5089469;28;20193;-49
2023/03/29 03:51:29;;;;;;;26.30;21.17;;;;;;;2.25;100.00;101392.91;5087348;28;20204;-47
2023/03/29 03:53:54;;;;;;;28.80;20.98;;;;;;;2.26;100.00;101392.94;5088632;28;20226;-49
2023/03/29 03:56:33;;;;;;;26.40;19.88;;;;;;;2.29;100.00;101391.19;5090533;28;20229;-48
2023/03/29 03:59:18;;;;;;;23.77;20.38;;;;;;;2.29;100.00;101388.53;5088505;28;20579;-49
2023/03/29 04:02:06;;;;;;;28.67;20.17;;;;;;;2.32;100.00;101372.66;5085593;28;20194;-48
2023/03/29 04:04:34;;;;;;;30.80;20.67;;;;;;;2.26;100.00;101373.53;5086642;28;20209;-50
2023/03/29 04:07:08;;;;;;;25.20;19.40;;;;;;;2.28;100.00;101373.56;5078879;28;20723;-47
2023/03/29 04:09:34;;;;;;;26.00;18.98;;;;;;;2.26;100.00;101370.91;5090646;28;20177;-49
2023/03/29 04:12:18;;;;;;;26.30;19.92;;;;;;;2.33;100.00;101375.34;5089914;28;20181;-48
2023/03/29 04:14:43;;;;;;;29.30;19.15;;;;;;;2.21;100.00;101380.59;5088069;28;20535;-51
2023/03/29 04:17:15;;;;;;;27.35;18.95;;;;;;;2.21;100.00;101375.28;5089047;28;20534;-50
2023/03/29 04:20:11;;;;;;;22.35;17.92;;;;;;;2.20;100.00;101370.88;5083022;28;20197;-48
2023/03/29 04:22:39;;;;;;;23.05;17.95;;;;;;;2.25;100.00;101382.34;5085511;28;20335;-50
2023/03/29 04:25:07;;;;;;;24.05;18.40;;;;;;;2.32;100.00;101372.66;5088839;28;20600;-49
2023/03/29 04:27:49;;;;;;;24.25;17.75;;;;;;;2.25;100.00;101366.47;5090028;28;20189;-49
2023/03/29 04:30:33;;;;;;;25.85;18.00;;;;;;;2.31;100.00;101370.91;5090009;28;20196;-49
2023/03/29 04:33:19;;;;;;;21.20;17.08;;;;;;;2.28;100.00;101371.78;5088181;28;20234;-47
2023/03/29 04:35:50;;;;;;;23.25;17.08;;;;;;;2.31;100.00;101376.22;5088228;28;20300;-50
2023/03/29 04:38:21;;;;;;;24.38;16.15;;;;;;;2.30;100.00;101363.88;5086056;28;20205;-50
2023/03/29 04:40:49;;;;;;;23.13;15.65;;;;;;;2.24;100.00;101370.00;5086167;28;20198;-51
2023/03/29 04:43:33;;;;;;;22.45;16.48;;;;;;;2.25;100.00;101361.19;5088532;28;20266;-48
2023/03/29 04:46:25;;;;;;;21.98;15.93;;;;;;;2.31;100.00;101373.56;5088172;28;20213;-47
2023/03/29 04:49:04;;;;;;;19.73;15.70;;;;;;;2.33;100.00;101364.75;5088021;28;20181;-48
2023/03/29 04:51:39;;;;;;;22.25;15.55;;;;;;;2.41;100.00;101365.69;5082704;28;20271;-48
2023/03/29 04:54:05;;;;;;;21.92;14.85;;;;;;;2.33;100.00;101353.31;5085203;28;20190;-49
2023/03/29 04:56:43;;;;;;;18.10;14.48;;;;;;;2.36;100.00;101348.00;5069940;28;20206;-47
2023/03/29 04:59:25;;;;;;;23.77;14.38;;;;;;;2.38;100.00;101344.50;5087822;28;20264;-50
2023/03/29 05:01:51;;;;;;;20.33;15.30;;;;;;;2.38;100.00;101351.53;5087427;28;20618;-48
2023/03/29 05:04:17;;;;;;;22.20;14.65;;;;;;;2.37;100.00;101345.38;5085798;28;20202;-49
2023/03/29 05:06:56;;;;;;;18.63;14.80;;;;;;;2.35;100.00;101338.31;5087099;28;20799;-50
2023/03/29 05:09:22;;;;;;;19.10;14.88;;;;;;;2.35;100.00;101331.28;5070733;28;20427;-48
2023/03/29 05:11:50;;;;;;;17.48;14.30;;;;;;;2.39;100.00;101338.34;5086987;28;20182;-45
2023/03/29 05:14:17;;;;;;;14.98;13.38;;;;;;;2.38;100.00;101327.75;5087718;28;20185;-47
2023/03/29 05:16:43;;;;;;;19.58;13.35;;;;;;;2.37;100.00;101318.94;5085247;28;20601;-48
2023/03/29 05:19:10;;;;;;;20.75;14.15;;;;;;;2.42;100.00;101322.47;5087022;28;20577;-47
2023/03/29 05:21:40;;;;;;;17.60;12.60;;;;;;;2.42;100.00;101314.53;5084985;28;20374;-48
2023/03/29 05:24:08;;;;;;;20.08;12.50;;;;;;;2.44;100.00;101314.56;5086462;28;20675;-48
2023/03/29 05:26:53;;;;;;;15.80;11.80;;;;;;;2.44;100.00;101311.91;5088779;28;20274;-47
2023/03/29 05:29:19;;;;;;;17.00;11.52;;;;;;;2.49;100.00;101304.84;5086168;28;20178;-48
2023/03/29 05:31:51;;;;;;;13.40;11.23;;;;;;;2.48;100.00;101311.91;5086206;28;20284;-46
2023/03/29 05:34:17;;;;;;;15.65;10.98;;;;;;;2.52;100.00;101317.22;5086339;28;20178;-49
2023/03/29 05:36:47;;;;;;;14.23;10.35;;;;;;;2.59;100.00;101319.88;5086932;28;20198;-47
2023/03/29 05:39:14;;;;;;;15.20;9.68;;;;;;;2.62;100.00;101321.66;5085150;28;20185;-47
2023/03/29 05:41:40;;;;;;;13.40;8.57;;;;;;;2.59;100.00;101309.31;5086869;28;20683;-46
2023/03/29 05:44:24;;;;;;;14.32;9.70;;;;;;;2.65;100.00;101327.84;5088989;28;20180;-45
2023/03/29 05:46:56;;;;;;;16.17;8.30;;;;;;;2.63;100.00;101316.38;5087237;28;20232;-47
2023/03/29 05:49:22;;;;;;;15.35;8.07;;;;;;;2.61;100.00;101310.19;5086961;28;20632;-47
2023/03/29 05:52:10;;;;;;;12.57;7.63;;;;;;;2.77;100.00;101308.44;5086558;28;20186;-49
2023/03/29 05:54:36;;;;;;;11.13;7.70;;;;;;;2.87;100.00;101310.22;5086135;28;20185;-48
2023/03/29 05:57:04;;;;;;;17.63;8.98;;;;;;;2.80;100.00;101308.47;5086593;28;20476;-47
2023/03/29 05:59:31;;;;;;;11.77;7.50;;;;;;;2.85;100.00;101306.69;5087165;28;20200;-46
2023/03/29 06:01:56;;;;;;;13.35;7.07;;;;;;;2.86;100.00;101308.47;5086960;28;20264;-46
2023/03/29 06:04:23;;;;;;;11.30;6.45;;;;;;;2.84;100.00;101304.03;5086002;28;20194;-48
2023/03/29 06:07:17;;;;;;;11.57;6.40;;;;;;;2.94;100.00;101310.25;5068578;28;20210;-42
2023/03/29 06:09:57;;;;;;;8.27;6.07;;;;;;;2.86;100.00;101308.47;5087017;28;20193;-43
2023/03/29 06:12:23;;;;;;;8.05;5.78;;;;;;;2.90;100.00;101298.75;5086974;28;20222;-43
2023/03/29 06:15:03;;;;;;;10.93;5.68;;;;;;;2.97;100.00;101299.66;5086593;28;20181;-44
2023/03/29 06:17:49;;;;;;;7.55;5.40;;;;;;;2.99;100.00;101306.69;5086153;28;20690;-42
2023/03/29 06:20:15;;;;;;;8.20;5.50;;;;;;;3.00;100.00;101316.44;5087376;28;20185;-42
2023/03/29 06:22:46;;;;;;;10.95;5.75;;;;;;;3.01;100.00;101314.66;5086563;28;20194;-43
2023/03/29 06:25:14;;;;;;;12.90;5.72;;;;;;;3.09;100.00;101315.56;5086541;28;20198;-43
2023/03/29 06:27:41;;;;;;;11.50;5.70;;;;;;;3.09;100.00;101300.53;5087413;28;20206;-44
2023/03/29 06:30:08;;;;;;;10.30;5.82;;;;;;;3.16;100.00;101305.84;5088753;28;20268;-44
2023/03/29 06:32:36;;;;;;;13.20;5.45;;;;;;;3.19;100.00;101301.44;5070608;28;20668;-43
2023/03/29 06:35:18;;;;;;;7.18;4.75;;;;;;;3.17;100.00;101294.34;5091179;28;20325;-43
2023/03/29 06:37:52;;;;;;;10.77;5.35;;;;;;;3.18;100.00;101289.06;5089803;28;20190;-42
2023/03/29 06:40:30;;;;;;;8.30;5.30;;;;;;;3.31;100.00;101295.25;5089553;28;20247;-44
2023/03/29 06:42:56;;;;;;;7.30;4.63;;;;;;;3.28;100.00;101277.59;5089958;28;20239;-43
2023/03/29 06:45:31;;;;;;;9.45;4.88;;;;;;;3.29;100.00;101279.34;5091790;28;20214;-40
2023/03/29 06:47:59;;;;;;;8.95;5.18;;;;;;;3.32;100.00;101283.75;5104325;28;20193;-44
2023/03/29 06:50:25;;;;;;;8.48;5.25;;;;;;;3.42;100.00;101282.00;5089130;28;20715;-43
2023/03/29 06:53:10;;;;;;;8.70;5.45;;;;;;;3.36;100.00;101282.00;5089432;28;20217;-43
2023/03/29 06:55:38;;;;;;;9.30;4.90;;;;;;;3.40;100.00;101291.69;5061099;22;20240;-45
2023/03/29 06:58:24;;;;;;;10.38;5.18;;;;;;;3.46;100.00;101283.75;5011199;28;20195;-43
2023/03/29 07:00:50;;;;;;;11.90;5.25;;;;;;;3.43;100.00;101281.09;5026872;28;20188;-44
2023/03/29 07:03:28;;;;;;;11.20;5.28;;;;;;;3.50;100.00;101293.47;4996116;28;20209;-44
2023/03/29 07:06:03;;;;;;;10.05;5.65;;;;;;;3.56;100.00;101300.50;4999417;28;20901;-42
2023/03/29 07:08:31;;;;;;;7.75;5.53;;;;;;;3.59;100.00;101295.22;5010587;28;20195;-48
2023/03/29 07:10:58;;;;;;;9.23;5.18;;;;;;;3.69;100.00;101303.09;5003157;28;20227;-41
2023/03/29 07:13:33;;;;;;;9.73;5.45;;;;;;;3.73;100.00;101296.03;5011466;28;20207;-44
2023/03/29 07:16:01;;;;;;;12.80;6.35;;;;;;;3.83;100.00;101289.84;5001590;28;20274;-48
2023/03/29 07:18:45;;;;;;;9.93;6.18;;;;;;;3.84;100.00;101293.38;5009451;28;20568;-49
2023/03/29 07:21:20;;;;;;;10.00;5.95;;;;;;;3.95;100.00;101290.69;5003284;28;20196;-46
2023/03/29 07:23:45;;;;;;;9.02;5.75;;;;;;;3.95;100.00;101295.97;5011553;28;20204;-44
2023/03/29 07:26:11;;;;;;;11.48;6.07;;;;;;;3.97;100.00;101295.09;5026324;28;20212;-44
2023/03/29 07:28:38;;;;;;;10.65;5.65;;;;;;;4.05;100.00;101298.59;4998738;28;20697;-44
2023/03/29 07:31:09;;;;;;;13.50;6.13;;;;;;;4.00;100.00;101288.88;5025548;28;20690;-49
2023/03/29 07:33:43;;;;;;;10.30;6.20;;;;;;;4.01;100.00;101286.22;5008825;28;20185;-47
2023/03/29 07:36:09;;;;;;;7.93;5.90;;;;;;;4.06;100.00;101292.38;5008219;28;20257;-45
2023/03/29 07:38:36;;;;;;;10.98;5.53;;;;;;;4.09;100.00;101295.06;5009704;28;20192;-43
2023/03/29 07:41:08;;;;;;;9.10;6.13;;;;;;;4.21;100.00;101294.09;5010022;28;20288;-44
2023/03/29 07:43:36;;;;;;;10.75;6.60;;;;;;;4.30;100.00;101295.84;5008792;28;20212;-45
2023/03/29 07:46:04;;;;;;;9.85;6.47;;;;;;;4.27;100.00;101291.44;4996581;28;20241;-42
2023/03/29 07:48:32;;;;;;;9.82;7.28;;;;;;;4.25;100.00;101293.19;5025926;28;20262;-43
2023/03/29 07:51:02;;;;;;;16.75;7.75;;;;;;;4.22;100.00;101300.28;5002940;28;20192;-43
2023/03/29 07:53:34;;;;;;;12.48;7.45;;;;;;;4.21;100.00;101303.84;5003499;28;20276;-45
2023/03/29 07:56:04;;;;;;;10.48;8.52;;;;;;;4.25;100.00;101295.84;5006716;28;20244;-45
2023/03/29 07:58:48;;;;;;;12.68;7.93;;;;;;;4.34;100.00;101300.22;5022308;28;20188;-45
2023/03/29 08:01:18;;;;;;;16.40;8.65;;;;;;;4.35;100.00;101304.63;4993692;28;20216;-43
2023/03/29 08:03:55;;;;;;;13.63;8.77;;;;;;;4.38;100.00;101298.47;5011129;28;20220;-45
2023/03/29 08:06:32;;;;;;;10.48;8.88;;;;;;;4.37;100.00;101302.84;4993040;28;20262;-44
2023/03/29 08:08:59;;;;;;;18.85;10.10;;;;;;;4.40;100.00;101296.69;5000192;28;20192;-43
2023/03/29 08:11:24;;;;;;;13.20;9.35;;;;;;;4.44;100.00;101285.13;5008253;28;20726;-45
2023/03/29 08:13:58;;;;;;;15.60;9.88;;;;;;;4.51;100.00;101292.19;5009158;28;20218;-45
2023/03/29 08:16:46;;;;;;;14.77;9.93;;;;;;;4.67;100.00;101296.50;5062271;22;20222;-46
2023/03/29 08:19:15;;;;;;;15.07;11.05;;;;;;;4.64;100.00;101282.38;5059904;28;20179;-46
2023/03/29 08:21:59;;;;;;;13.88;11.30;;;;;;;4.75;100.00;101288.50;5058542;28;20187;-46
2023/03/29 08:24:29;;;;;;;13.85;10.98;;;;;;;4.84;100.00;101295.53;5055866;28;20220;-46
2023/03/29 08:27:03;;;;;;;15.00;11.48;;;;;;;4.96;100.00;101300.72;5067112;28;20281;-45
2023/03/29 08:29:30;;;;;;;17.73;11.90;;;;;;;4.91;100.00;101290.13;5057328;28;20270;-47
2023/03/29 08:31:57;;;;;;;17.95;11.75;;;;;;;4.99;100.00;101282.13;5059255;28;20671;-47
2023/03/29 08:34:23;;;;;;;14.57;10.63;;;;;;;4.93;100.00;101288.34;5057062;28;20183;-46
2023/03/29 08:37:08;;;;;;;20.20;12.05;;;;;;;5.01;100.00;101287.41;5060346;28;20281;-45
2023/03/29 08:39:39;;;;;;;15.48;11.80;;;;;;;5.11;100.00;101281.13;5061947;28;20263;-46
2023/03/29 08:42:33;;;;;;;16.83;11.43;;;;;;;5.09;100.00;101286.44;5058383;28;20253;-45
2023/03/29 08:45:01;;;;;;;16.42;11.10;;;;;;;5.20;100.00;101278.38;5057315;28;20217;-46
2023/03/29 08:47:37;;;;;;;13.52;10.93;;;;;;;5.08;100.00;101281.16;5049479;28;20272;-45
2023/03/29 08:50:07;;;;;;;14.40;10.88;;;;;;;5.20;100.00;101266.88;5057531;28;20547;-46
2023/03/29 08:52:48;;;;;;;15.20;11.70;;;;;;;5.20;100.00;101259.78;5064561;28;20179;-45
2023/03/29 08:55:40;;;;;;;15.65;11.68;;;;;;;5.24;100.00;101274.81;5057749;28;20218;-48
2023/03/29 08:58:34;;;;;;;14.82;11.00;;;;;;;5.32;100.00;101270.31;5031055;28;20194;-47
2023/03/29 09:01:04;;;;;;;14.05;11.18;;;;;;;5.14;100.00;101259.88;5057930;28;20697;-48
2023/03/29 09:03:45;;;;;;;15.45;11.63;;;;;;;5.25;100.00;101265.09;5053560;28;20202;-48
2023/03/29 09:06:20;;;;;;;14.77;11.38;;;;;;;5.36;100.00;101257.91;5058575;28;20203;-47
2023/03/29 09:08:49;;;;;;;15.75;12.35;;;;;;;5.48;100.00;101251.56;5055574;28;20189;-47
2023/03/29 09:11:23;;;;;;;15.90;11.75;;;;;;;5.51;100.00;101251.53;5066476;28;20197;-48
2023/03/29 09:14:02;;;;;;;14.05;11.10;;;;;;;5.44;100.00;101252.50;5039063;28;20638;-47
2023/03/29 09:16:55;;;;;;;13.20;11.27;;;;;;;5.37;100.00;101262.31;5050836;28;20211;-48
2023/03/29 09:19:43;;;;;;;17.70;11.57;;;;;;;5.44;100.00;101249.84;5059876;28;20193;-47
2023/03/29 09:22:12;;;;;;;14.40;12.02;;;;;;;5.48;100.00;101259.53;5055047;28;20186;-48
2023/03/29 09:24:56;;;;;;;14.13;11.52;;;;;;;5.51;100.00;101244.44;5057260;28;20814;-47
2023/03/29 09:27:31;;;;;;;15.00;11.95;;;;;;;5.52;100.00;101256.81;5064537;28;20269;-47
2023/03/29 09:30:25;;;;;;;18.02;12.35;;;;;;;5.39;100.00;101243.69;5050791;28;20194;-47
2023/03/29 09:33:10;;;;;;;12.30;10.80;;;;;;;5.45;100.00;101254.28;5057657;28;20175;-46
2023/03/29 09:35:57;;;;;;;13.60;11.00;;;;;;;5.42;100.00;101259.59;5066702;28;20309;-47
2023/03/29 09:38:22;;;;;;;13.23;11.77;;;;;;;5.44;100.00;101264.00;5055789;28;20339;-48
2023/03/29 09:40:58;;;;;;;15.07;11.88;;;;;;;5.56;100.00;101255.91;5058667;28;20241;-46
2023/03/29 09:43:36;;;;;;;15.65;12.88;;;;;;;5.35;100.00;101249.03;5057271;28;20193;-47
2023/03/29 09:46:16;;;;;;;14.75;12.25;;;;;;;5.36;100.00;101239.31;5052105;28;20240;-47
2023/03/29 09:48:45;;;;;;;17.63;12.98;;;;;;;5.30;100.00;101245.53;5070681;28;20492;-46
2023/03/29 09:51:12;;;;;;;14.82;12.82;;;;;;;5.33;100.00;101255.25;5059746;28;20664;-49
2023/03/29 09:53:38;;;;;;;15.07;12.77;;;;;;;5.32;100.00;101258.81;5059957;28;20175;-47
2023/03/29 09:56:17;;;;;;;15.57;12.65;;;;;;;5.34;100.00;101251.72;5044473;28;20213;-47
2023/03/29 09:59:02;;;;;;;14.10;12.27;;;;;;;5.41;100.00;101250.75;5065280;28;20178;-46
2023/03/29 10:01:36;;;;;;;15.15;13.38;;;;;;;5.46;100.00;101250.69;5056122;28;20213;-47
2023/03/29 10:04:06;;;;;;;13.52;11.85;;;;;;;5.31;100.00;101247.31;5064256;28;20195;-46
2023/03/29 10:06:35;;;;;;;15.23;12.10;;;;;;;5.47;100.00;101239.19;5039470;28;20238;-46
2023/03/29 10:09:03;;;;;;;14.38;12.48;;;;;;;5.39;100.00;101238.38;5057865;28;20188;-46
2023/03/29 10:11:37;;;;;;;16.23;11.68;;;;;;;5.43;100.00;101243.66;5061218;28;20193;-47
2023/03/29 10:14:11;;;;;;;16.85;13.35;;;;;;;5.44;100.00;101228.56;5062322;28;20523;-47
2023/03/29 10:16:44;;;;;;;14.60;11.38;;;;;;;5.55;100.00;101234.66;5061214;28;20984;-46
2023/03/29 10:19:47;;;;;;;17.35;11.80;;;;;;;5.69;100.00;101232.72;5062479;28;20669;-47
2023/03/29 10:22:24;;;;;;;14.90;12.05;;;;;;;5.60;100.00;101230.19;5029901;28;20199;-47
2023/03/29 10:24:51;;;;;;;19.00;11.90;;;;;;;5.61;100.00;101228.41;5062673;28;20263;-47
2023/03/29 10:27:23;;;;;;;14.38;11.93;;;;;;;5.66;100.00;101226.56;5061889;28;20367;-46
2023/03/29 10:29:50;;;;;;;15.40;11.73;;;;;;;5.78;100.00;101221.97;5058105;28;20674;-45
2023/03/29 10:32:25;;;;;;;13.07;11.68;;;;;;;6.01;100.00;101227.94;5058664;28;20198;-46
2023/03/29 10:34:52;;;;;;;15.38;11.07;;;;;;;5.88;100.00;101213.88;5061164;28;20553;-46
2023/03/29 10:37:19;;;;;;;14.88;11.13;;;;;;;5.87;100.00;101222.78;5057789;28;20207;-45
2023/03/29 10:39:47;;;;;;;13.35;11.95;;;;;;;5.97;100.00;101212.03;5059500;28;20179;-47
2023/03/29 10:42:16;;;;;;;13.70;11.15;;;;;;;6.09;100.00;101218.09;5057941;28;20560;-46
2023/03/29 10:44:42;;;;;;;14.15;11.50;;;;;;;5.98;100.00;101223.53;5059957;28;20187;-46
2023/03/29 10:47:18;;;;;;;14.57;11.00;;;;;;;5.91;100.00;101214.72;5062750;28;20254;-46
2023/03/29 10:49:49;;;;;;;12.95;10.25;;;;;;;5.92;100.00;101219.13;5055401;28;20182;-45
2023/03/29 10:52:16;;;;;;;13.65;11.43;;;;;;;6.07;100.00;101203.94;5059200;28;20175;-46
2023/03/29 10:54:43;;;;;;;14.18;10.73;;;;;;;6.06;100.00;101213.69;5060682;28;20240;-46
2023/03/29 10:57:15;;;;;;;18.33;11.63;;;;;;;6.07;100.00;101207.47;5060612;28;20241;-47
2023/03/29 10:59:56;;;;;;;14.15;11.25;;;;;;;5.90;100.00;101220.06;5060700;28;20210;-45
2023/03/29 11:03:03;;;;;;;13.45;10.75;;;;;;;5.94;100.00;101217.38;5061870;28;20183;-44
2023/03/29 11:05:38;;;;;;;16.55;11.82;;;;;;;6.02;100.00;101219.06;5059076;28;20276;-46
2023/03/29 11:08:35;;;;;;;14.88;11.30;;;;;;;5.91;100.00;101216.53;5058076;28;20183;-45
2023/03/29 11:11:23;;;;;;;19.90;11.90;;;;;;;6.15;100.00;101226.00;5038680;28;20207;-44
2023/03/29 11:14:13;;;;;;;16.33;11.88;;;;;;;6.09;100.00;101221.63;5060343;28;20178;-43
2023/03/29 11:17:32;;;;;;;14.55;11.25;;;;;;;5.96;100.00;101204.94;5058069;28;20218;-45
2023/03/29 11:20:12;;;;;;;13.18;10.90;;;;;;;6.06;100.00;101203.06;5008630;28;20188;-46
2023/03/29 11:22:49;;;;;;;15.52;10.40;;;;;;;6.17;100.00;101213.53;5052718;28;20203;-43
2023/03/29 11:25:29;;;;;;;13.02;10.93;;;;;;;6.26;100.00;101199.22;5060281;28;20306;-42
2023/03/29 11:28:10;;;;;;;13.23;10.27;;;;;;;6.12;100.00;101195.00;5059349;28;20191;-45
2023/03/29 11:31:03;;;;;;;18.67;11.15;;;;;;;6.48;100.00;101183.81;5058404;28;20182;-44
2023/03/29 11:33:38;;;;;;;14.35;11.18;;;;;;;6.46;100.00;101169.66;5059566;28;20639;-46
2023/03/29 11:36:36;;;;;;;13.10;9.95;;;;;;;6.58;100.00;101165.03;5057788;28;20237;-45
2023/03/29 11:39:27;;;;;;;17.90;11.13;;;;;;;6.72;100.00;101163.91;5052120;28;20212;-44